Time;durP1;ratioP1;P1;durP2;ratioP2;P2;SDS_P1;SDS_P2;PMS_P1;PMS_P2;Temp;Humidity;BMP_temperature;BMP_pressure;BME280_temperature;BME280_humidity;BME280_pressure;Samples;Min_cycle;Max_cycle;Signal;HPM_P1;HPM_P2
2022/01/09 00:00:05;;;;;;;11.02;9.35;;;4.00;99.90;;;;;;5072843;28;20048;-74
2022/01/09 00:02:32;;;;;;;11.93;9.77;;;4.00;99.90;;;;;;5073019;28;20052;-72
2022/01/09 00:04:58;;;;;;;14.93;11.25;;;4.00;99.90;;;;;;5072335;28;20088;-72
2022/01/09 00:07:26;;;;;;;13.38;11.13;;;4.00;99.90;;;;;;5072791;28;20132;-74
2022/01/09 00:09:55;;;;;;;12.35;9.75;;;4.00;99.90;;;;;;5071692;28;20045;-73
2022/01/09 00:12:24;;;;;;;11.45;10.00;;;4.00;99.90;;;;;;5072242;28;20062;-72
2022/01/09 00:14:51;;;;;;;12.82;10.63;;;4.00;99.90;;;;;;5072712;28;20496;-74
2022/01/09 00:17:19;;;;;;;11.40;10.15;;;4.00;99.90;;;;;;5072683;28;20090;-72
2022/01/09 00:19:46;;;;;;;12.48;10.25;;;4.00;99.90;;;;;;5072060;28;20626;-73
2022/01/09 00:22:13;;;;;;;11.35;9.85;;;4.00;99.90;;;;;;5072247;28;20135;-73
2022/01/09 00:24:40;;;;;;;13.43;10.63;;;4.00;99.90;;;;;;5072674;28;20056;-73
2022/01/09 00:27:07;;;;;;;11.43;9.50;;;4.00;99.90;;;;;;5071760;28;20091;-72
2022/01/09 00:29:35;;;;;;;12.30;10.65;;;4.00;99.90;;;;;;5072328;28;20458;-72
2022/01/09 00:32:02;;;;;;;12.20;10.00;;;4.00;99.90;;;;;;5072639;28;20063;-73
2022/01/09 00:34:29;;;;;;;11.40;9.27;;;4.00;99.90;;;;;;5071987;28;20393;-74
2022/01/09 00:36:56;;;;;;;12.02;9.80;;;4.00;99.90;;;;;;5073707;28;20056;-74
2022/01/09 00:39:23;;;;;;;12.35;9.70;;;4.00;99.90;;;;;;5071660;28;20056;-74
2022/01/09 00:41:50;;;;;;;16.15;11.10;;;4.00;99.90;;;;;;5071980;28;20583;-73
2022/01/09 00:44:17;;;;;;;13.10;10.50;;;4.00;99.90;;;;;;5072091;28;20574;-73
2022/01/09 00:46:45;;;;;;;14.88;11.13;;;4.00;99.90;;;;;;5071592;28;20170;-75
2022/01/09 00:49:12;;;;;;;12.73;10.40;;;4.00;99.90;;;;;;5071948;28;20045;-74
2022/01/09 00:51:38;;;;;;;15.10;10.90;;;4.00;99.90;;;;;;5071943;28;20069;-74
2022/01/09 00:54:05;;;;;;;14.68;11.35;;;4.00;99.90;;;;;;5071363;28;20052;-74
2022/01/09 00:56:32;;;;;;;13.05;10.90;;;4.00;99.90;;;;;;5071844;28;20045;-73
2022/01/09 00:58:59;;;;;;;14.57;11.48;;;4.00;99.90;;;;;;5071866;28;20121;-74
2022/01/09 01:01:26;;;;;;;13.55;11.45;;;4.40;99.90;;;;;;5071407;28;20500;-73
2022/01/09 01:03:54;;;;;;;14.00;10.93;;;4.00;99.90;;;;;;5072167;28;20056;-74
2022/01/09 01:06:21;;;;;;;14.23;11.45;;;4.00;99.90;;;;;;5071859;28;20048;-73
2022/01/09 01:08:48;;;;;;;12.20;10.15;;;4.00;99.90;;;;;;5071647;28;20044;-73
2022/01/09 01:11:14;;;;;;;15.23;11.18;;;4.00;99.90;;;;;;5072276;28;20049;-73
2022/01/09 01:13:41;;;;;;;15.40;11.45;;;4.00;99.90;;;;;;5071970;28;20109;-73
2022/01/09 01:16:08;;;;;;;11.38;10.07;;;4.00;99.90;;;;;;5070978;28;20098;-74
2022/01/09 01:18:35;;;;;;;11.55;9.77;;;4.00;99.90;;;;;;5071996;28;20044;-72
2022/01/09 01:21:03;;;;;;;11.88;9.85;;;4.00;99.90;;;;;;5090846;28;20056;-73
2022/01/09 01:23:30;;;;;;;14.52;10.52;;;4.00;99.90;;;;;;5092396;28;20102;-72
2022/01/09 01:26:00;;;;;;;13.70;10.65;;;4.00;99.90;;;;;;5075530;28;20102;-72
2022/01/09 01:28:27;;;;;;;11.98;9.57;;;4.10;99.90;;;;;;5075357;28;20135;-74
2022/01/09 01:30:55;;;;;;;12.05;9.80;;;4.00;99.90;;;;;;5075605;28;20052;-74
2022/01/09 01:33:22;;;;;;;19.08;13.18;;;4.00;99.90;;;;;;5092790;28;20396;-74
2022/01/09 01:35:49;;;;;;;14.68;11.52;;;4.10;99.90;;;;;;5074733;28;20053;-74
2022/01/09 01:38:17;;;;;;;13.73;11.30;;;4.10;99.90;;;;;;5075849;28;20098;-73
2022/01/09 01:40:44;;;;;;;15.75;11.50;;;4.10;99.90;;;;;;5075501;28;20048;-73
2022/01/09 01:43:12;;;;;;;15.20;12.02;;;4.10;99.90;;;;;;5074790;28;20102;-73
2022/01/09 01:45:39;;;;;;;16.90;12.50;;;4.10;99.90;;;;;;5075414;28;20113;-73
2022/01/09 01:48:06;;;;;;;15.93;11.55;;;4.10;99.90;;;;;;5075473;28;20048;-73
2022/01/09 01:50:37;;;;;;;17.83;13.18;;;4.40;99.90;;;;;;5074701;28;20117;-73
2022/01/09 01:53:05;;;;;;;15.63;12.52;;;4.10;99.90;;;;;;5074872;28;20052;-73
2022/01/09 01:55:36;;;;;;;17.70;13.63;;;4.10;99.90;;;;;;5074981;28;20048;-73
2022/01/09 01:58:04;;;;;;;20.15;13.30;;;4.10;99.90;;;;;;5075787;28;20132;-73
2022/01/09 02:00:32;;;;;;;15.75;12.15;;;4.20;99.90;;;;;;5075260;28;20123;-74
2022/01/09 02:02:59;;;;;;;22.95;15.57;;;4.20;99.90;;;;;;5075185;28;20044;-73
2022/01/09 02:05:27;;;;;;;15.05;11.82;;;4.20;99.90;;;;;;5075477;28;20052;-73
2022/01/09 02:07:56;;;;;;;17.63;12.98;;;4.10;99.90;;;;;;5075507;28;20114;-73
2022/01/09 02:10:23;;;;;;;18.73;13.70;;;4.20;99.90;;;;;;5074800;28;20052;-73
2022/01/09 02:12:55;;;;;;;17.27;12.77;;;4.20;99.90;;;;;;5074494;28;20495;-73
2022/01/09 02:15:32;;;;;;;16.83;12.68;;;4.20;99.90;;;;;;5075298;28;20438;-73
2022/01/09 02:18:00;;;;;;;14.18;11.45;;;4.20;99.90;;;;;;5074077;28;20052;-73
2022/01/09 02:20:28;;;;;;;15.18;11.35;;;4.20;99.90;;;;;;5074909;28;20056;-72
2022/01/09 02:22:55;;;;;;;18.70;12.30;;;4.20;99.90;;;;;;5074426;28;20049;-73
2022/01/09 02:25:22;;;;;;;15.43;11.43;;;4.20;99.90;;;;;;5074350;28;20052;-73
2022/01/09 02:27:50;;;;;;;15.82;11.48;;;4.30;99.90;;;;;;5074705;28;20052;-72
2022/01/09 02:30:17;;;;;;;17.77;12.50;;;4.20;99.90;;;;;;5074450;28;20554;-72
2022/01/09 02:32:43;;;;;;;17.17;12.73;;;4.20;99.90;;;;;;5073289;28;20118;-72
2022/01/09 02:35:10;;;;;;;19.98;13.75;;;4.20;99.90;;;;;;5074809;28;20561;-73
2022/01/09 02:37:39;;;;;;;17.20;13.00;;;4.20;99.90;;;;;;5074592;28;20476;-73
2022/01/09 02:40:07;;;;;;;16.80;11.40;;;4.30;99.90;;;;;;5073714;28;20048;-72
2022/01/09 02:42:35;;;;;;;14.25;11.32;;;4.30;99.90;;;;;;5074207;28;20090;-72
2022/01/09 02:45:02;;;;;;;17.65;11.13;;;4.30;99.90;;;;;;5075632;28;20057;-72
2022/01/09 02:47:32;;;;;;;16.38;11.30;;;4.40;99.90;;;;;;5073670;28;20048;-72
2022/01/09 02:50:08;;;;;;;22.80;12.10;;;4.40;99.90;;;;;;5073371;28;20041;-72
2022/01/09 02:52:47;;;;;;;18.10;11.45;;;4.40;99.90;;;;;;5074591;28;20388;-72
2022/01/09 02:55:16;;;;;;;15.98;11.55;;;4.50;99.90;;;;;;5073840;28;20052;-71
2022/01/09 02:57:44;;;;;;;17.40;10.70;;;4.50;99.90;;;;;;5075061;28;20105;-73
2022/01/09 03:00:14;;;;;;;17.20;11.15;;;4.50;99.90;;;;;;5073174;28;20048;-71
2022/01/09 03:02:41;;;;;;;16.10;10.18;;;4.60;99.90;;;;;;5074101;28;20052;-72
2022/01/09 03:05:09;;;;;;;17.35;10.60;;;4.60;99.90;;;;;;5073837;28;20059;-73
2022/01/09 03:07:35;;;;;;;16.73;9.98;;;4.60;99.90;;;;;;5073483;28;20105;-73
2022/01/09 03:10:03;;;;;;;18.38;10.93;;;4.70;99.90;;;;;;5074090;28;20048;-73
2022/01/09 03:12:32;;;;;;;20.58;10.40;;;4.90;99.90;;;;;;5073609;28;20118;-73
2022/01/09 03:14:59;;;;;;;22.27;9.23;;;4.80;99.90;;;;;;5073305;28;20114;-73
2022/01/09 03:17:25;;;;;;;16.55;7.90;;;4.70;99.90;;;;;;5073471;28;20052;-72
2022/01/09 03:19:52;;;;;;;16.33;8.00;;;4.80;99.90;;;;;;5074140;28;20435;-73
2022/01/09 03:22:19;;;;;;;19.30;7.63;;;4.80;99.90;;;;;;5073015;28;20052;-73
2022/01/09 03:24:46;;;;;;;18.70;7.43;;;4.80;99.90;;;;;;5073829;28;20106;-72
2022/01/09 03:27:13;;;;;;;20.15;7.03;;;4.90;99.90;;;;;;5073456;28;20118;-73
2022/01/09 03:29:41;;;;;;;26.90;7.75;;;4.20;99.90;;;;;;5072958;28;20040;-72
2022/01/09 03:32:09;;;;;;;21.38;6.50;;;4.90;99.90;;;;;;5073333;28;20057;-72
2022/01/09 03:34:36;;;;;;;26.55;5.82;;;5.00;99.90;;;;;;5073433;28;20110;-73
2022/01/09 03:37:04;;;;;;;20.25;5.65;;;5.00;99.90;;;;;;5072685;28;20106;-71
2022/01/09 03:39:31;;;;;;;26.52;6.65;;;5.00;99.90;;;;;;5073601;28;20078;-72
2022/01/09 03:41:59;;;;;;;28.38;6.03;;;5.10;99.90;;;;;;5073369;28;20048;-73
2022/01/09 03:44:26;;;;;;;30.70;6.82;;;5.10;99.90;;;;;;5072667;28;20056;-73
2022/01/09 03:46:54;;;;;;;40.20;7.43;;;5.20;99.90;;;;;;5073259;28;20052;-73
2022/01/09 03:49:22;;;;;;;41.67;7.82;;;5.30;99.90;;;;;;5072218;28;20045;-73
2022/01/09 03:51:51;;;;;;;49.60;9.57;;;5.40;99.90;;;;;;5072938;28;20048;-73
2022/01/09 03:54:20;;;;;;;46.97;8.98;;;5.70;99.90;;;;;;5090087;28;20113;-73
2022/01/09 03:56:47;;;;;;;54.15;8.60;;;5.60;99.90;;;;;;5089078;28;20136;-73
2022/01/09 03:59:14;;;;;;;44.78;8.70;;;5.60;99.90;;;;;;5072507;28;20049;-74
2022/01/09 04:01:41;;;;;;;44.50;8.38;;;5.70;99.90;;;;;;5073257;28;20435;-74
2022/01/09 04:04:09;;;;;;;48.75;9.45;;;5.80;99.90;;;;;;5073395;28;20110;-73
2022/01/09 04:06:39;;;;;;;49.35;9.07;;;5.70;99.90;;;;;;5073730;28;20110;-74
2022/01/09 04:09:17;;;;;;;35.30;7.15;;;5.70;99.90;;;;;;5072552;28;20492;-73
2022/01/09 04:11:43;;;;;;;32.67;7.25;;;5.70;99.90;;;;;;5072248;28;20059;-73
2022/01/09 04:14:10;;;;;;;40.42;8.00;;;5.80;99.90;;;;;;5072755;28;20052;-72
2022/01/09 04:16:37;;;;;;;27.45;6.55;;;5.80;99.90;;;;;;5072264;28;20048;-73
2022/01/09 04:19:04;;;;;;;33.38;7.43;;;5.70;99.90;;;;;;5072370;28;20102;-73
2022/01/09 04:21:33;;;;;;;28.38;7.85;;;5.70;99.90;;;;;;5073645;28;20508;-73
2022/01/09 04:23:59;;;;;;;34.30;5.95;;;5.70;99.90;;;;;;5074101;28;20052;-72
2022/01/09 04:26:26;;;;;;;36.45;6.60;;;5.70;99.90;;;;;;5071822;28;20102;-72
2022/01/09 04:28:53;;;;;;;28.75;6.30;;;5.70;99.90;;;;;;5072620;28;20480;-73
2022/01/09 04:31:20;;;;;;;32.10;5.63;;;5.70;99.90;;;;;;5071415;28;20041;-71
2022/01/09 04:33:47;;;;;;;32.22;5.88;;;5.70;99.90;;;;;;5072364;28;20056;-72
2022/01/09 04:36:14;;;;;;;26.10;6.28;;;5.70;99.90;;;;;;5089091;28;20048;-71
2022/01/09 04:38:42;;;;;;;33.83;6.00;;;5.70;99.90;;;;;;5071837;28;20125;-71
2022/01/09 04:41:09;;;;;;;24.85;7.20;;;5.70;99.90;;;;;;5072424;28;20059;-71
2022/01/09 04:43:35;;;;;;;29.05;5.90;;;5.70;99.90;;;;;;5089114;28;20496;-71
2022/01/09 04:46:02;;;;;;;23.20;5.80;;;5.70;99.90;;;;;;5088550;28;20060;-72
2022/01/09 04:48:29;;;;;;;34.80;5.72;;;5.70;99.90;;;;;;5072496;28;20510;-74
2022/01/09 04:50:58;;;;;;;26.50;5.68;;;5.70;99.90;;;;;;5089097;28;20047;-72
2022/01/09 04:53:25;;;;;;;27.08;6.30;;;5.70;99.90;;;;;;5071373;28;20098;-72
2022/01/09 04:55:53;;;;;;;30.13;6.30;;;5.70;99.90;;;;;;5071518;28;20052;-72
2022/01/09 04:58:20;;;;;;;24.25;4.93;;;5.70;99.90;;;;;;5071677;28;20052;-73
2022/01/09 05:00:47;;;;;;;29.90;6.20;;;5.70;99.90;;;;;;5071429;28;20047;-73
2022/01/09 05:03:15;;;;;;;31.13;6.70;;;5.70;99.90;;;;;;5072213;28;20053;-73
2022/01/09 05:05:42;;;;;;;24.50;5.60;;;5.70;99.90;;;;;;5071517;28;20058;-73
2022/01/09 05:08:09;;;;;;;27.15;4.78;;;5.70;99.90;;;;;;5071768;28;20060;-73
2022/01/09 05:10:36;;;;;;;23.20;5.40;;;5.70;99.90;;;;;;5072016;28;20090;-72
2022/01/09 05:13:04;;;;;;;27.17;5.70;;;5.70;99.90;;;;;;5071965;28;20078;-72
2022/01/09 05:15:31;;;;;;;25.48;5.70;;;5.70;99.90;;;;;;5071410;28;20102;-72
2022/01/09 05:18:01;;;;;;;22.55;5.20;;;5.70;99.90;;;;;;5072673;28;20044;-71
2022/01/09 05:20:28;;;;;;;33.28;5.25;;;6.20;99.90;;;;;;5071984;28;20135;-72
2022/01/09 05:22:55;;;;;;;31.50;5.82;;;5.60;99.90;;;;;;5071226;28;20113;-72
2022/01/09 05:25:22;;;;;;;21.08;5.13;;;5.60;99.90;;;;;;5088782;28;20054;-72
2022/01/09 05:27:49;;;;;;;25.17;4.80;;;5.60;99.90;;;;;;5087702;28;20048;-71
2022/01/09 05:30:17;;;;;;;27.33;4.93;;;5.50;99.90;;;;;;5071779;28;20123;-72
2022/01/09 05:32:44;;;;;;;25.65;5.07;;;5.50;99.90;;;;;;5071694;28;20538;-72
2022/01/09 05:35:14;;;;;;;24.57;4.67;;;5.70;99.90;;;;;;5072409;28;20049;-73
2022/01/09 05:37:41;;;;;;;31.92;5.70;;;5.50;99.90;;;;;;5071602;28;20106;-72
2022/01/09 05:40:09;;;;;;;26.00;4.45;;;5.40;99.90;;;;;;5071952;28;20119;-72
2022/01/09 05:42:36;;;;;;;30.73;5.88;;;5.40;99.90;;;;;;5071084;28;20044;-72
2022/01/09 05:45:04;;;;;;;32.85;6.72;;;5.40;99.90;;;;;;5088182;28;20049;-73
2022/01/09 05:47:32;;;;;;;19.77;4.60;;;5.40;99.90;;;;;;5071338;28;20118;-73
2022/01/09 05:49:59;;;;;;;21.20;5.13;;;5.40;99.90;;;;;;5071023;28;20049;-74
2022/01/09 05:52:26;;;;;;;18.95;4.45;;;5.40;99.90;;;;;;5071649;28;20373;-73
2022/01/09 05:54:53;;;;;;;20.42;4.85;;;5.30;99.90;;;;;;5071506;28;20050;-73
2022/01/09 05:57:20;;;;;;;23.30;5.15;;;5.30;99.90;;;;;;5081885;28;20095;-73
2022/01/09 05:59:46;;;;;;;37.35;5.70;;;5.30;99.90;;;;;;5051356;28;20052;-72
2022/01/09 06:02:13;;;;;;;26.45;4.78;;;5.30;99.90;;;;;;5051625;28;20443;-72
2022/01/09 06:04:42;;;;;;;18.65;4.45;;;5.30;99.90;;;;;;5050837;28;20475;-73
2022/01/09 06:07:09;;;;;;;26.63;5.00;;;5.20;99.90;;;;;;5052234;28;20055;-73
2022/01/09 06:09:36;;;;;;;25.13;4.82;;;5.20;99.90;;;;;;5055076;28;20053;-74
2022/01/09 06:12:03;;;;;;;17.92;4.15;;;5.20;99.90;;;;;;5054344;28;20052;-73
2022/01/09 06:14:30;;;;;;;30.58;4.55;;;5.20;99.90;;;;;;5055772;28;20049;-73
2022/01/09 06:16:57;;;;;;;26.05;4.50;;;5.20;99.90;;;;;;5054390;28;20098;-72
2022/01/09 06:19:24;;;;;;;22.48;5.40;;;5.20;99.90;;;;;;5054894;28;20546;-72
2022/01/09 06:21:52;;;;;;;18.80;4.40;;;5.20;99.90;;;;;;5055002;28;20451;-73
2022/01/09 06:24:19;;;;;;;15.65;4.63;;;5.20;99.90;;;;;;5054223;28;20401;-71
2022/01/09 06:26:46;;;;;;;15.98;3.88;;;5.20;99.90;;;;;;5071402;28;20496;-71
2022/01/09 06:29:13;;;;;;;18.80;3.53;;;5.10;99.90;;;;;;5074893;28;20121;-73
2022/01/09 06:31:40;;;;;;;18.73;3.80;;;5.10;99.90;;;;;;5090897;28;20051;-73
2022/01/09 06:34:07;;;;;;;20.65;3.58;;;5.10;99.90;;;;;;5074498;28;20056;-72
2022/01/09 06:36:34;;;;;;;15.65;3.92;;;5.10;99.90;;;;;;5091456;28;20118;-72
2022/01/09 06:39:02;;;;;;;26.48;4.20;;;5.10;99.90;;;;;;5075006;28;20052;-72
2022/01/09 06:41:29;;;;;;;15.52;3.13;;;5.10;99.90;;;;;;5075658;28;20504;-72
2022/01/09 06:43:55;;;;;;;22.63;5.38;;;5.10;99.90;;;;;;5074457;28;20496;-72
2022/01/09 06:46:22;;;;;;;23.85;4.30;;;5.00;99.90;;;;;;5090734;28;20060;-71
2022/01/09 06:48:49;;;;;;;16.38;3.78;;;5.00;99.90;;;;;;5074407;28;20092;-71
2022/01/09 06:51:16;;;;;;;18.23;4.20;;;5.00;99.90;;;;;;5091518;28;20053;-72
2022/01/09 06:53:43;;;;;;;29.77;3.65;;;5.10;99.90;;;;;;5073685;28;20106;-71
2022/01/09 06:56:11;;;;;;;15.50;3.38;;;5.00;99.90;;;;;;5074182;28;20056;-72
2022/01/09 06:58:38;;;;;;;18.30;4.18;;;4.90;99.90;;;;;;5072363;28;20122;-72
2022/01/09 07:01:05;;;;;;;14.00;3.33;;;4.90;99.90;;;;;;5053974;28;20111;-72
2022/01/09 07:03:32;;;;;;;15.73;4.28;;;4.90;99.90;;;;;;5067704;28;20052;-71
2022/01/09 07:05:59;;;;;;;11.85;3.55;;;4.90;99.90;;;;;;5073801;28;20045;-72
2022/01/09 07:08:28;;;;;;;16.85;3.85;;;4.80;99.90;;;;;;5073169;28;20492;-72
2022/01/09 07:10:55;;;;;;;12.77;2.72;;;4.80;99.90;;;;;;5074143;28;20055;-72
2022/01/09 07:13:24;;;;;;;14.18;3.30;;;4.80;99.90;;;;;;5089994;28;20526;-72
2022/01/09 07:15:50;;;;;;;12.20;3.40;;;4.80;99.90;;;;;;5090801;28;20060;-71
2022/01/09 07:18:17;;;;;;;14.05;3.05;;;4.80;99.90;;;;;;5073221;28;20139;-72
2022/01/09 07:20:44;;;;;;;15.85;3.00;;;4.80;99.90;;;;;;5073193;28;20048;-72
2022/01/09 07:23:11;;;;;;;12.68;3.08;;;4.80;99.90;;;;;;5073861;28;20049;-73
2022/01/09 07:25:38;;;;;;;15.32;3.97;;;4.80;99.90;;;;;;5073842;28;20114;-73
2022/01/09 07:28:05;;;;;;;15.63;3.17;;;4.70;99.90;;;;;;5072838;28;20056;-72
2022/01/09 07:30:33;;;;;;;13.40;3.28;;;4.80;99.90;;;;;;5073519;28;20107;-73
2022/01/09 07:33:00;;;;;;;17.88;4.53;;;4.70;99.90;;;;;;5073753;28;20044;-74
2022/01/09 07:35:27;;;;;;;15.20;3.00;;;4.70;99.90;;;;;;5072702;28;20109;-73
2022/01/09 07:37:54;;;;;;;22.67;4.40;;;4.60;99.90;;;;;;5073321;28;20053;-74
2022/01/09 07:40:21;;;;;;;12.68;3.63;;;4.60;99.90;;;;;;5073656;28;20401;-73
2022/01/09 07:42:48;;;;;;;13.48;3.08;;;4.60;99.90;;;;;;5072866;28;20056;-72
2022/01/09 07:45:16;;;;;;;17.60;3.83;;;4.60;99.90;;;;;;5073282;28;20578;-73
2022/01/09 07:47:44;;;;;;;20.70;3.95;;;4.60;99.90;;;;;;5072992;28;20098;-72
2022/01/09 07:50:11;;;;;;;14.80;4.13;;;4.60;99.90;;;;;;5072090;28;20056;-73
2022/01/09 07:52:39;;;;;;;16.40;3.92;;;4.60;99.90;;;;;;5073186;28;20090;-73
2022/01/09 07:55:07;;;;;;;14.45;4.32;;;4.50;99.90;;;;;;5074533;28;20052;-74
2022/01/09 07:57:34;;;;;;;13.43;3.10;;;4.50;99.90;;;;;;5072154;28;20049;-73
2022/01/09 08:00:03;;;;;;;16.13;4.20;;;4.50;99.90;;;;;;5073146;28;20086;-73
2022/01/09 08:02:30;;;;;;;12.45;2.60;;;4.50;99.90;;;;;;5072203;28;20080;-74
2022/01/09 08:04:58;;;;;;;22.05;4.50;;;4.50;99.90;;;;;;5072965;28;20106;-72
2022/01/09 08:07:25;;;;;;;11.93;3.60;;;4.50;99.90;;;;;;5072371;28;20056;-71
2022/01/09 08:09:52;;;;;;;14.63;2.72;;;4.50;99.90;;;;;;5072163;28;20450;-71
2022/01/09 08:12:19;;;;;;;11.43;2.80;;;4.50;99.90;;;;;;5073890;28;20044;-71
2022/01/09 08:14:46;;;;;;;13.82;3.75;;;4.40;99.90;;;;;;5072522;28;20106;-72
2022/01/09 08:17:13;;;;;;;12.10;3.35;;;4.50;99.90;;;;;;5072030;28;20048;-73
2022/01/09 08:19:40;;;;;;;12.32;2.60;;;4.40;99.90;;;;;;5072581;28;20056;-73
2022/01/09 08:22:09;;;;;;;22.90;4.72;;;4.40;99.90;;;;;;5072918;28;20044;-72
2022/01/09 08:24:37;;;;;;;10.63;2.40;;;4.40;99.90;;;;;;5071850;28;20048;-73
2022/01/09 08:27:05;;;;;;;12.27;3.20;;;4.40;99.90;;;;;;5072260;28;20052;-74
2022/01/09 08:29:32;;;;;;;9.90;2.40;;;4.40;99.90;;;;;;5071750;28;20052;-74
2022/01/09 08:31:59;;;;;;;20.38;3.72;;;4.40;99.90;;;;;;5071691;28;20048;-72
2022/01/09 08:34:26;;;;;;;22.65;3.80;;;4.40;99.90;;;;;;5072232;28;20102;-73
2022/01/09 08:36:53;;;;;;;12.68;3.50;;;4.40;99.90;;;;;;5072293;28;20052;-72
2022/01/09 08:39:21;;;;;;;12.70;3.05;;;4.40;99.90;;;;;;5071563;28;20056;-70
2022/01/09 08:41:48;;;;;;;13.10;2.92;;;4.40;99.90;;;;;;5060002;28;20098;-73
2022/01/09 08:44:15;;;;;;;13.60;2.95;;;4.50;99.90;;;;;;5068761;28;20121;-71
2022/01/09 08:46:41;;;;;;;11.70;2.47;;;4.50;99.90;;;;;;5067039;28;20049;-70
2022/01/09 08:49:08;;;;;;;13.90;2.88;;;4.50;99.90;;;;;;5065823;28;20083;-72
2022/01/09 08:51:35;;;;;;;13.10;2.95;;;4.50;99.90;;;;;;5068199;28;20052;-70
2022/01/09 08:54:02;;;;;;;10.18;2.45;;;4.50;99.90;;;;;;5075554;28;20045;-72
2022/01/09 08:56:32;;;;;;;10.73;2.88;;;4.60;99.90;;;;;;5067663;28;20094;-71
2022/01/09 08:59:01;;;;;;;16.70;2.85;;;4.60;99.90;;;;;;5065431;28;20056;-71
2022/01/09 09:01:28;;;;;;;14.63;3.95;;;4.60;99.90;;;;;;5067461;28;20399;-71
2022/01/09 09:03:55;;;;;;;13.35;2.75;;;4.70;99.90;;;;;;5066344;28;20071;-72
2022/01/09 09:06:21;;;;;;;12.20;2.90;;;4.80;99.90;;;;;;5065411;28;20052;-70
2022/01/09 09:08:48;;;;;;;12.73;3.10;;;4.80;99.90;;;;;;5069713;28;20102;-71
2022/01/09 09:11:15;;;;;;;13.55;2.83;;;4.90;99.90;;;;;;5066457;28;20052;-71
2022/01/09 09:13:43;;;;;;;8.68;2.50;;;5.00;99.90;;;;;;5064408;28;20053;-70
2022/01/09 09:16:10;;;;;;;16.23;2.60;;;5.10;99.90;;;;;;5066358;28;20109;-72
2022/01/09 09:18:39;;;;;;;11.18;3.28;;;5.20;99.90;;;;;;5066482;28;20071;-71
2022/01/09 09:21:05;;;;;;;12.18;3.45;;;5.40;99.90;;;;;;5066622;28;20511;-72
2022/01/09 09:23:32;;;;;;;12.90;2.90;;;5.50;99.90;;;;;;5078927;28;20102;-72
2022/01/09 09:25:59;;;;;;;11.45;3.00;;;5.60;99.90;;;;;;5068133;28;20052;-71
2022/01/09 09:28:26;;;;;;;11.93;2.75;;;5.70;99.90;;;;;;5069378;28;20041;-71
2022/01/09 09:30:54;;;;;;;10.63;2.80;;;5.80;99.90;;;;;;5064888;28;20114;-72
2022/01/09 09:33:21;;;;;;;10.05;2.28;;;5.90;99.90;;;;;;5065752;28;20048;-71
2022/01/09 09:35:48;;;;;;;8.05;2.45;;;6.00;99.90;;;;;;5067673;28;20052;-70
2022/01/09 09:38:15;;;;;;;18.45;4.10;;;5.90;99.90;;;;;;5069836;28;20110;-72
2022/01/09 09:40:42;;;;;;;7.68;2.40;;;5.80;99.90;;;;;;5069841;28;20071;-71
2022/01/09 09:43:09;;;;;;;9.10;2.33;;;5.90;99.90;;;;;;5070719;28;20056;-71
2022/01/09 09:45:36;;;;;;;12.82;3.20;;;5.90;99.90;;;;;;5069590;28;20045;-71
2022/01/09 09:48:05;;;;;;;11.25;3.35;;;5.90;99.90;;;;;;5068880;28;20106;-72
2022/01/09 09:50:32;;;;;;;10.65;2.72;;;6.00;99.90;;;;;;5069688;28;20102;-71
2022/01/09 09:52:59;;;;;;;9.32;2.25;;;6.00;99.90;;;;;;5071620;28;20048;-72
2022/01/09 09:55:26;;;;;;;11.15;2.55;;;6.10;99.90;;;;;;5068999;28;20073;-72
2022/01/09 09:57:53;;;;;;;10.82;3.10;;;6.10;99.90;;;;;;5079049;28;20095;-71
2022/01/09 10:00:22;;;;;;;10.88;2.05;;;6.00;99.90;;;;;;5073273;28;20052;-71
2022/01/09 10:02:50;;;;;;;11.90;2.55;;;6.00;99.90;;;;;;5073139;28;20044;-71
2022/01/09 10:05:20;;;;;;;8.48;1.98;;;6.00;99.90;;;;;;5081546;28;20044;-71
2022/01/09 10:07:47;;;;;;;8.05;2.22;;;6.10;99.90;;;;;;5072947;28;20048;-70
2022/01/09 10:10:16;;;;;;;10.60;2.47;;;6.10;99.90;;;;;;5071720;28;20049;-71
2022/01/09 10:12:44;;;;;;;7.78;2.35;;;6.10;99.90;;;;;;5069341;28;20052;-72
2022/01/09 10:15:13;;;;;;;10.63;2.78;;;6.10;99.90;;;;;;5070160;28;20487;-71
2022/01/09 10:17:43;;;;;;;11.77;2.55;;;6.20;99.90;;;;;;5069219;28;20067;-71
2022/01/09 10:20:13;;;;;;;7.03;2.30;;;6.20;99.90;;;;;;5070254;28;20056;-71
2022/01/09 10:22:44;;;;;;;8.20;2.83;;;6.20;99.90;;;;;;5067304;28;20045;-72
2022/01/09 10:25:35;;;;;;;8.55;2.15;;;6.30;99.90;;;;;;5069107;28;20475;-71
2022/01/09 10:28:03;;;;;;;;;;;6.30;99.90;;;;;;5069581;28;20048;-72
2022/01/09 10:30:33;;;;;;;8.98;2.25;;;6.40;99.90;;;;;;5068823;28;19927;-72
2022/01/09 10:33:02;;;;;;;8.15;2.00;;;6.60;99.90;;;;;;5067804;28;20492;-73
2022/01/09 10:35:30;;;;;;;9.93;2.33;;;6.80;99.90;;;;;;5068166;28;20439;-71
2022/01/09 10:38:12;;;;;;;12.50;2.72;;;7.20;99.90;;;;;;5068880;28;20045;-70
2022/01/09 10:40:41;;;;;;;10.40;2.38;;;7.50;99.90;;;;;;5069641;28;20049;-71
2022/01/09 10:43:10;;;;;;;10.32;2.75;;;7.80;99.90;;;;;;5082565;28;20052;-72
2022/01/09 10:45:40;;;;;;;8.40;2.42;;;8.00;99.90;;;;;;5068957;28;20056;-72
2022/01/09 10:48:11;;;;;;;12.10;2.90;;;8.10;99.90;;;;;;5071120;28;20056;-71
2022/01/09 10:50:39;;;;;;;;;;;8.20;99.90;;;;;;5072929;28;20048;-72
2022/01/09 10:53:21;;;;;;;12.68;2.13;;;8.20;99.90;;;;;;5067652;28;19920;-71
2022/01/09 10:56:00;;;;;;;9.70;2.22;;;8.30;99.90;;;;;;5068152;28;20060;-71
2022/01/09 10:58:28;;;;;;;7.93;2.25;;;8.20;99.90;;;;;;5068921;28;20562;-71
2022/01/09 11:01:20;;;;;;;14.52;3.33;;;8.20;99.90;;;;;;5072353;28;20158;-72
2022/01/09 11:03:49;;;;;;;11.25;3.25;;;7.90;99.90;;;;;;5072225;28;20063;-72
2022/01/09 11:06:16;;;;;;;7.75;2.72;;;7.60;99.90;;;;;;5070859;28;20109;-73
2022/01/09 11:08:44;;;;;;;10.45;3.03;;;7.30;99.90;;;;;;5072930;28;20094;-72
2022/01/09 11:11:22;;;;;;;10.95;2.72;;;7.20;99.90;;;;;;5068587;28;20049;-71
2022/01/09 11:13:51;;;;;;;10.68;2.60;;;7.10;99.90;;;;;;5071520;28;20040;-72
2022/01/09 11:16:34;;;;;;;11.32;2.30;;;7.00;99.90;;;;;;5068523;28;20495;-72
2022/01/09 11:19:03;;;;;;;7.85;2.00;;;6.90;99.90;;;;;;5067818;28;20056;-71
2022/01/09 11:21:30;;;;;;;6.05;1.60;;;6.80;99.90;;;;;;5068667;28;20063;-72
2022/01/09 11:24:33;;;;;;;11.13;2.30;;;6.80;99.90;;;;;;5069140;28;20041;-71
2022/01/09 11:27:07;;;;;;;10.18;2.70;;;6.70;99.90;;;;;;5027959;28;20051;-71
2022/01/09 11:29:41;;;;;;;7.15;2.08;;;6.60;99.90;;;;;;5073386;28;20565;-70
2022/01/09 11:32:20;;;;;;;8.20;2.60;;;6.70;99.90;;;;;;5071874;28;20090;-71
2022/01/09 11:34:53;;;;;;;13.18;2.95;;;6.80;99.90;;;;;;5073324;28;20051;-72
2022/01/09 11:37:31;;;;;;;9.00;2.30;;;7.00;99.90;;;;;;5069603;28;20109;-72
2022/01/09 11:40:01;;;;;;;9.15;2.47;;;7.30;99.90;;;;;;5073061;28;20507;-71
2022/01/09 11:42:27;;;;;;;11.43;2.60;;;7.80;99.90;;;;;;5068051;28;20048;-72
2022/01/09 11:44:56;;;;;;;13.63;3.00;;;8.40;99.90;;;;;;5084001;28;20095;-71
2022/01/09 11:47:24;;;;;;;6.55;2.72;;;8.50;99.90;;;;;;5087766;28;20049;-70
2022/01/09 11:50:09;;;;;;;12.63;3.03;;;8.30;99.90;;;;;;5097707;28;20053;-70
2022/01/09 11:52:57;;;;;;;9.00;2.42;;;8.30;99.90;;;;;;5088518;28;20028;-70
2022/01/09 11:55:41;;;;;;;8.52;2.53;;;8.20;99.90;;;;;;5088365;28;20074;-71
2022/01/09 11:58:11;;;;;;;10.65;3.55;;;8.20;99.90;;;;;;5086961;28;20087;-69
2022/01/09 12:00:40;;;;;;;12.85;2.75;;;8.70;99.90;;;;;;5086413;28;20051;-70
2022/01/09 12:03:35;;;;;;;14.80;2.53;;;9.20;99.90;;;;;;5078008;28;20040;-71
2022/01/09 12:06:04;;;;;;;10.95;2.83;;;9.70;99.90;;;;;;5065200;28;20045;-73
2022/01/09 12:09:07;;;;;;;16.75;3.05;;;10.50;99.90;;;;;;5068588;28;20044;-72
2022/01/09 12:12:06;;;;;;;10.05;2.35;;;10.90;99.90;;;;;;5067926;28;20052;-72
2022/01/09 12:14:56;;;;;;;9.77;2.72;;;10.70;99.90;;;;;;5067201;28;20048;-73
2022/01/09 12:17:40;;;;;;;10.43;2.47;;;10.40;99.90;;;;;;5068831;28;20072;-73
2022/01/09 12:20:10;;;;;;;5.75;1.90;;;9.90;99.90;;;;;;5068220;28;20044;-73
2022/01/09 12:23:06;;;;;;;10.13;3.30;;;9.70;99.90;;;;;;5064475;28;20046;-72
2022/01/09 12:25:50;;;;;;;8.50;2.42;;;10.00;99.90;;;;;;5067212;28;20048;-72
2022/01/09 12:28:26;;;;;;;9.07;2.90;;;10.10;99.90;;;;;;5069863;28;20048;-72
2022/01/09 12:30:58;;;;;;;8.98;2.58;;;9.80;99.90;;;;;;5065942;28;20109;-72
2022/01/09 12:33:49;;;;;;;12.77;2.60;;;9.50;99.90;;;;;;5076866;28;20381;-74
2022/01/09 12:36:30;;;;;;;8.63;2.25;;;9.40;99.90;;;;;;5067611;28;20064;-72
2022/01/09 12:38:59;;;;;;;8.02;2.42;;;9.90;99.90;;;;;;5068128;28;20577;-73
2022/01/09 12:41:32;;;;;;;9.98;2.35;;;10.40;99.90;;;;;;5078739;28;20048;-73
2022/01/09 12:44:04;;;;;;;10.20;2.42;;;11.00;99.90;;;;;;5065281;28;20055;-71
2022/01/09 12:46:33;;;;;;;8.80;2.15;;;11.30;99.90;;;;;;5066307;28;20076;-72
2022/01/09 12:49:02;;;;;;;9.70;2.33;;;11.40;99.90;;;;;;5068300;28;20044;-70
2022/01/09 12:51:30;;;;;;;9.95;2.63;;;10.90;99.90;;;;;;5067771;28;20045;-71
2022/01/09 12:53:58;;;;;;;8.27;2.72;;;10.50;99.90;;;;;;5066694;28;20071;-73